createdAt,value
2023-06-19T00:01:11.124Z,101401.75
2023-06-19T00:03:38.334Z,101403.63
2023-06-19T00:06:07.076Z,101401.56
2023-06-19T00:08:34.425Z,101399.78
2023-06-19T00:11:01.508Z,101392.00
2023-06-19T00:13:28.662Z,101395.03
2023-06-19T00:15:56.586Z,101387.44
2023-06-19T00:18:23.947Z,101394.59
2023-06-19T00:20:51.770Z,101392.97
2023-06-19T00:23:18.770Z,101384.50
2023-06-19T00:25:45.972Z,101384.50
2023-06-19T00:28:15.177Z,101389.75
2023-06-19T00:30:42.873Z,101377.72
2023-06-19T00:33:10.370Z,101382.16
2023-06-19T00:35:37.905Z,101377.59
2023-06-19T00:38:06.873Z,101390.41
2023-06-19T00:40:35.274Z,101375.91
2023-06-19T00:43:03.182Z,101373.38
2023-06-19T00:45:30.540Z,101370.59
2023-06-19T00:47:59.402Z,101367.16
2023-06-19T00:50:27.591Z,101360.53
2023-06-19T00:52:55.181Z,101362.31
2023-06-19T00:55:22.703Z,101365.66
2023-06-19T00:57:51.994Z,101360.84
2023-06-19T01:00:19.348Z,101363.13
2023-06-19T01:02:48.210Z,101370.25
2023-06-19T01:05:16.483Z,101359.88
2023-06-19T01:08:14.567Z,101362.84
2023-06-19T01:10:56.746Z,101368.38
2023-06-19T01:13:36.028Z,101355.72
2023-06-19T01:16:04.969Z,101360.44
2023-06-19T01:18:33.965Z,101363.63
2023-06-19T01:21:16.632Z,101362.13
2023-06-19T01:23:44.319Z,101366.06
2023-06-19T01:26:12.937Z,101375.53
2023-06-19T01:28:45.145Z,101374.81
2023-06-19T01:31:46.955Z,101371.59
2023-06-19T01:34:18.671Z,101366.06
2023-06-19T01:36:48.091Z,101371.59
2023-06-19T01:39:17.333Z,101372.75
2023-06-19T01:41:47.440Z,101372.28
2023-06-19T01:44:14.858Z,101371.50
2023-06-19T01:46:42.436Z,101371.13
2023-06-19T01:49:10.928Z,101380.22
2023-06-19T01:51:38.095Z,101377.44
2023-06-19T01:54:05.658Z,101375.06
2023-06-19T01:56:32.869Z,101368.25
2023-06-19T01:59:00.976Z,101373.34
2023-06-19T02:01:29.230Z,101363.44
2023-06-19T02:03:56.273Z,101362.44
2023-06-19T02:06:23.461Z,101361.63
2023-06-19T02:08:50.823Z,101362.34
2023-06-19T02:11:17.930Z,101356.72
2023-06-19T02:13:44.976Z,101351.19
2023-06-19T02:16:13.711Z,101342.91
2023-06-19T02:18:40.798Z,101338.53
2023-06-19T02:21:08.086Z,101331.38
2023-06-19T02:23:35.745Z,101346.00
2023-06-19T02:26:02.855Z,101345.19
2023-06-19T02:28:30.263Z,101337.28
2023-06-19T02:30:57.296Z,101343.94
2023-06-19T02:33:24.488Z,101345.91
2023-06-19T02:35:53.645Z,101346.25
2023-06-19T02:38:22.574Z,101343.03
2023-06-19T02:40:49.606Z,101344.19
2023-06-19T02:43:16.908Z,101346.16
2023-06-19T02:45:44.139Z,101339.00
2023-06-19T02:48:12.176Z,101340.63
2023-06-19T02:50:39.498Z,101341.75
2023-06-19T02:53:06.744Z,101342.94
2023-06-19T02:55:33.846Z,101353.19
2023-06-19T02:58:01.307Z,101357.81
2023-06-19T03:00:30.020Z,101351.81
2023-06-19T03:02:58.474Z,101352.16
2023-06-19T03:05:28.462Z,101354.47
2023-06-19T03:07:56.555Z,101352.88
2023-06-19T03:10:24.027Z,101353.47
2023-06-19T03:12:51.375Z,101350.03
2023-06-19T03:15:18.589Z,101355.06
2023-06-19T03:17:49.531Z,101356.22
2023-06-19T03:20:17.977Z,101363.03
2023-06-19T03:22:52.853Z,101366.44
2023-06-19T03:25:21.206Z,101375.19
2023-06-19T03:27:49.275Z,101376.47
2023-06-19T03:30:19.809Z,101374.97
2023-06-19T03:32:50.615Z,101376.66
2023-06-19T03:35:36.481Z,101374.47
2023-06-19T03:38:04.778Z,101374.47
2023-06-19T03:40:32.468Z,101371.72
2023-06-19T03:43:05.981Z,101383.09
2023-06-19T03:45:33.732Z,101379.09
2023-06-19T03:48:00.850Z,101388.97
2023-06-19T03:50:28.062Z,101385.41
2023-06-19T03:52:55.149Z,101382.56
2023-06-19T03:55:22.392Z,101388.88
2023-06-19T03:57:50.765Z,101387.03
2023-06-19T04:00:19.489Z,101391.06
2023-06-19T04:02:50.249Z,101381.72
2023-06-19T04:05:17.758Z,101387.00
2023-06-19T04:07:45.276Z,101374.09
2023-06-19T04:10:15.217Z,101376.94
2023-06-19T04:12:42.338Z,101386.94
2023-06-19T04:15:10.674Z,101389.47
2023-06-19T04:17:37.956Z,101386.81
2023-06-19T04:20:12.892Z,101390.47
2023-06-19T04:22:41.614Z,101396.47
2023-06-19T04:25:11.266Z,101404.84
2023-06-19T04:27:38.476Z,101396.66
2023-06-19T04:30:07.810Z,101390.81
2023-06-19T04:32:36.479Z,101391.34
2023-06-19T04:35:03.960Z,101399.84
2023-06-19T04:37:31.199Z,101387.38
2023-06-19T04:39:58.896Z,101393.94
2023-06-19T04:42:26.133Z,101392.53
2023-06-19T04:44:53.503Z,101391.63
2023-06-19T04:47:23.384Z,101395.84
2023-06-19T04:49:50.493Z,101398.97
2023-06-19T04:52:17.585Z,101403.59
2023-06-19T04:54:44.858Z,101404.59
2023-06-19T04:57:11.976Z,101408.16
2023-06-19T04:59:39.130Z,101410.94
2023-06-19T05:02:07.991Z,101415.22
2023-06-19T05:04:35.294Z,101406.34
2023-06-19T05:07:02.477Z,101408.69
2023-06-19T05:09:30.167Z,101403.78
2023-06-19T05:11:58.628Z,101401.00
2023-06-19T05:14:25.743Z,101407.47
2023-06-19T05:16:52.947Z,101407.81
2023-06-19T05:19:20.120Z,101413.81
2023-06-19T05:21:47.365Z,101418.63
2023-06-19T05:24:15.201Z,101428.44
2023-06-19T05:26:42.374Z,101424.69
2023-06-19T05:29:09.997Z,101431.84
2023-06-19T05:31:37.072Z,101431.97
2023-06-19T05:34:04.664Z,101431.44
2023-06-19T05:36:31.698Z,101437.31
2023-06-19T05:38:58.824Z,101436.69
2023-06-19T05:41:25.920Z,101430.34
2023-06-19T05:43:53.052Z,101428.63
2023-06-19T05:46:20.448Z,101432.78
2023-06-19T05:48:48.398Z,101430.38
2023-06-19T05:51:15.985Z,101430.50
2023-06-19T05:53:43.087Z,101428.78
2023-06-19T05:56:10.386Z,101439.91
2023-06-19T05:58:37.484Z,101439.53
2023-06-19T06:01:04.752Z,101442.50
2023-06-19T06:03:32.094Z,101444.25
2023-06-19T06:06:04.489Z,101442.56
2023-06-19T06:08:31.839Z,101440.00
2023-06-19T06:10:59.297Z,101454.72
2023-06-19T06:13:26.538Z,101461.78
2023-06-19T06:15:53.703Z,101469.63
2023-06-19T06:18:21.078Z,101462.31
2023-06-19T06:20:48.264Z,101467.03
2023-06-19T06:23:15.672Z,101473.81
2023-06-19T06:25:42.752Z,101473.47
2023-06-19T06:28:09.943Z,101479.22
2023-06-19T06:30:36.965Z,101477.63
2023-06-19T06:33:04.879Z,101473.25
2023-06-19T06:35:32.152Z,101480.00
2023-06-19T06:37:59.477Z,101484.41
2023-06-19T06:40:26.830Z,101487.78
2023-06-19T06:42:55.132Z,101479.13
2023-06-19T06:45:25.007Z,101484.72
2023-06-19T06:47:52.847Z,101483.97
2023-06-19T06:50:19.914Z,101487.28
2023-06-19T06:52:47.073Z,101488.13
2023-06-19T06:55:14.178Z,101483.16
2023-06-19T06:57:41.324Z,101486.75
2023-06-19T07:00:12.352Z,101477.91
2023-06-19T07:02:41.515Z,101484.56
2023-06-19T07:05:10.136Z,101475.25
2023-06-19T07:07:37.817Z,101477.31
2023-06-19T07:10:05.246Z,101482.75
2023-06-19T07:12:32.510Z,101480.47
2023-06-19T07:14:59.516Z,101486.03
2023-06-19T07:17:26.580Z,101477.56
2023-06-19T07:19:53.941Z,101475.53
2023-06-19T07:22:21.106Z,101471.16
2023-06-19T07:24:48.362Z,101472.38
2023-06-19T07:27:15.468Z,101478.41
2023-06-19T07:29:42.664Z,101478.44
2023-06-19T07:32:09.807Z,101478.06
2023-06-19T07:34:37.120Z,101484.06
2023-06-19T07:37:04.545Z,101484.88
2023-06-19T07:39:32.308Z,101488.09
2023-06-19T07:41:59.512Z,101487.28
2023-06-19T07:44:26.514Z,101482.53
2023-06-19T07:46:53.888Z,101495.38
2023-06-19T07:49:20.962Z,101477.38
2023-06-19T07:51:48.151Z,101490.53
2023-06-19T07:54:15.258Z,101490.94
2023-06-19T07:56:42.788Z,101491.72
2023-06-19T07:59:09.843Z,101490.50
2023-06-19T08:01:36.989Z,101484.91
2023-06-19T08:04:04.043Z,101498.47
2023-06-19T08:06:31.130Z,101489.28
2023-06-19T08:08:58.319Z,101493.69
2023-06-19T08:11:25.435Z,101493.34
2023-06-19T08:13:52.547Z,101492.13
2023-06-19T08:16:19.836Z,101494.13
2023-06-19T08:18:47.215Z,101493.75
2023-06-19T08:21:14.747Z,101499.72
2023-06-19T08:23:44.873Z,101500.97
2023-06-19T08:26:12.428Z,101482.94
2023-06-19T08:28:39.616Z,101500.16
2023-06-19T08:31:06.654Z,101496.53
2023-06-19T08:33:36.519Z,101501.78
2023-06-19T08:36:03.881Z,101488.16
2023-06-19T08:38:31.225Z,101494.97
2023-06-19T08:40:58.323Z,101497.38
2023-06-19T08:43:25.521Z,101492.59
2023-06-19T08:46:12.024Z,101490.59
2023-06-19T08:48:40.268Z,101486.59
2023-06-19T08:51:07.571Z,101496.56
2023-06-19T08:53:36.688Z,101509.31
2023-06-19T08:56:05.805Z,101504.56
2023-06-19T08:58:33.021Z,101510.50
2023-06-19T09:01:00.634Z,101502.50
2023-06-19T09:03:27.848Z,101499.72
2023-06-19T09:05:55.230Z,101510.09
2023-06-19T09:08:24.153Z,101504.50
2023-06-19T09:11:01.861Z,101504.50
2023-06-19T09:13:32.327Z,101507.69
2023-06-19T09:16:09.099Z,101510.09
2023-06-19T09:18:47.710Z,101512.84
2023-06-19T09:21:26.027Z,101516.72
2023-06-19T09:23:53.415Z,101511.88
2023-06-19T09:26:27.521Z,101502.50
2023-06-19T09:28:55.244Z,101503.97
2023-06-19T09:31:34.198Z,101504.28
2023-06-19T09:34:01.418Z,101499.84
2023-06-19T09:36:29.493Z,101499.72
2023-06-19T09:38:58.358Z,101497.69
2023-06-19T09:41:26.685Z,101498.19
2023-06-19T09:44:01.159Z,101491.00
2023-06-19T09:46:34.295Z,101495.50
2023-06-19T09:49:03.162Z,101499.91
2023-06-19T09:51:38.399Z,101492.78
2023-06-19T09:54:07.914Z,101498.44
2023-06-19T09:56:35.532Z,101495.31
2023-06-19T09:59:04.850Z,101498.53
2023-06-19T10:01:33.637Z,101501.78
2023-06-19T10:04:05.816Z,101497.06
2023-06-19T10:06:33.765Z,101495.44
2023-06-19T10:09:11.355Z,101478.69
2023-06-19T10:11:52.747Z,101486.25
2023-06-19T10:14:24.076Z,101482.53
2023-06-19T10:16:52.990Z,101469.25
2023-06-19T10:19:23.640Z,101466.81
2023-06-19T10:21:55.684Z,101468.75
2023-06-19T10:24:25.599Z,101461.19
2023-06-19T10:27:03.664Z,101456.00
2023-06-19T10:29:41.897Z,101451.19
2023-06-19T10:32:12.427Z,101449.69
2023-06-19T10:34:39.460Z,101446.50
2023-06-19T10:37:06.696Z,101442.44
2023-06-19T10:39:34.014Z,101443.97
2023-06-19T10:42:01.115Z,101445.69
2023-06-19T10:44:28.203Z,101437.75
2023-06-19T10:46:55.470Z,101446.13
2023-06-19T10:49:22.802Z,101450.97
2023-06-19T10:51:50.102Z,101451.03
2023-06-19T10:54:18.584Z,101450.28
2023-06-19T10:56:45.728Z,101450.31
2023-06-19T10:59:12.966Z,101438.72
2023-06-19T11:01:46.338Z,101450.75
2023-06-19T11:04:16.386Z,101450.00
2023-06-19T11:06:48.721Z,101446.84
2023-06-19T11:09:15.953Z,101441.63
2023-06-19T11:11:48.145Z,101446.78
2023-06-19T11:14:17.132Z,101440.78
2023-06-19T11:16:47.487Z,101431.63
2023-06-19T11:19:20.554Z,101438.00
2023-06-19T11:21:50.232Z,101437.06
2023-06-19T11:24:18.173Z,101424.69
2023-06-19T11:26:51.034Z,101423.44
2023-06-19T11:29:21.649Z,101429.03
2023-06-19T11:31:49.999Z,101421.97
2023-06-19T11:34:19.459Z,101422.78
2023-06-19T11:36:48.309Z,101420.84
2023-06-19T11:39:16.883Z,101421.25
2023-06-19T11:41:47.347Z,101418.06
2023-06-19T11:44:14.788Z,101414.41
2023-06-19T11:46:44.120Z,101420.38
2023-06-19T11:49:15.616Z,101419.22
2023-06-19T11:51:42.951Z,101416.31
2023-06-19T11:54:12.439Z,101422.69
2023-06-19T11:56:40.958Z,101421.25
2023-06-19T11:59:08.783Z,101421.31
2023-06-19T12:01:37.034Z,101421.63
2023-06-19T12:04:05.277Z,101410.75
2023-06-19T12:06:32.659Z,101415.97
2023-06-19T12:09:00.398Z,101418.88
2023-06-19T12:11:27.495Z,101414.84
2023-06-19T12:13:58.985Z,101407.69
2023-06-19T12:16:26.674Z,101411.63
2023-06-19T12:18:54.682Z,101405.31
2023-06-19T12:21:33.784Z,101406.16
2023-06-19T12:24:03.845Z,101404.53
2023-06-19T12:26:31.217Z,101399.75
2023-06-19T12:28:58.214Z,101400.19
2023-06-19T12:31:26.318Z,101397.84
2023-06-19T12:33:53.485Z,101396.97
2023-06-19T12:36:20.814Z,101396.00
2023-06-19T12:38:50.110Z,101393.84
2023-06-19T12:41:18.383Z,101389.97
2023-06-19T12:43:45.619Z,101403.91
2023-06-19T12:46:13.099Z,101395.50
2023-06-19T12:48:40.326Z,101402.66
2023-06-19T12:51:07.590Z,101400.16
2023-06-19T12:53:35.030Z,101393.66
2023-06-19T12:56:05.983Z,101392.50
2023-06-19T12:58:36.517Z,101391.00
2023-06-19T13:01:03.719Z,101392.97
2023-06-19T13:03:31.068Z,101396.06
2023-06-19T13:05:58.578Z,101405.41
2023-06-19T13:08:26.060Z,101407.91
2023-06-19T13:10:53.238Z,101402.69
2023-06-19T13:13:20.555Z,101403.81
2023-06-19T13:15:47.767Z,101403.81
2023-06-19T13:18:15.232Z,101414.16
2023-06-19T13:20:42.295Z,101411.38
2023-06-19T13:23:09.665Z,101406.47
2023-06-19T13:25:36.714Z,101408.03
2023-06-19T13:28:04.074Z,101407.72
2023-06-19T13:30:31.184Z,101413.31
2023-06-19T13:32:58.595Z,101400.97
2023-06-19T13:35:26.599Z,101402.19
2023-06-19T13:37:54.978Z,101404.66
2023-06-19T13:40:22.692Z,101398.25
2023-06-19T13:42:50.244Z,101402.16
2023-06-19T13:45:17.531Z,101404.53
2023-06-19T13:47:44.959Z,101400.97
2023-06-19T13:50:15.909Z,101404.13
2023-06-19T13:52:43.098Z,101406.16
2023-06-19T13:55:10.389Z,101402.56
2023-06-19T13:57:38.576Z,101396.16
2023-06-19T14:00:09.623Z,101389.75
2023-06-19T14:02:42.178Z,101394.44
2023-06-19T14:05:10.759Z,101384.75
2023-06-19T14:07:37.879Z,101383.03
2023-06-19T14:10:06.350Z,101380.00
2023-06-19T14:12:33.810Z,101381.69
2023-06-19T14:15:00.943Z,101386.88
2023-06-19T14:17:28.127Z,101391.31
2023-06-19T14:19:57.246Z,101386.31
2023-06-19T14:22:24.277Z,101385.16
2023-06-19T14:24:51.779Z,101383.59
2023-06-19T14:27:18.841Z,101386.00
2023-06-19T14:29:46.317Z,101380.03
2023-06-19T14:32:13.693Z,101376.06
2023-06-19T14:34:40.703Z,101371.72
2023-06-19T14:37:08.062Z,101374.94
2023-06-19T14:39:35.256Z,101380.50
2023-06-19T14:42:02.729Z,101370.53
2023-06-19T14:44:29.774Z,101370.91
2023-06-19T14:46:56.982Z,101370.47
2023-06-19T14:49:24.162Z,101366.88
2023-06-19T14:51:51.931Z,101372.88
2023-06-19T14:54:21.222Z,101375.69
2023-06-19T14:56:49.423Z,101366.13
2023-06-19T14:59:16.930Z,101368.88
2023-06-19T15:01:45.420Z,101363.97
2023-06-19T15:04:12.901Z,101361.47
2023-06-19T15:06:40.878Z,101361.06
2023-06-19T15:09:08.084Z,101359.47
2023-06-19T15:11:35.825Z,101361.47
2023-06-19T15:14:02.988Z,101360.25
2023-06-19T15:16:30.011Z,101351.38
2023-06-19T15:18:57.182Z,101352.97
2023-06-19T15:21:24.263Z,101352.56
2023-06-19T15:23:55.034Z,101357.66
2023-06-19T15:26:22.300Z,101349.69
2023-06-19T15:28:49.678Z,101348.94
2023-06-19T15:31:17.847Z,101350.59
2023-06-19T15:33:44.869Z,101342.72
2023-06-19T15:36:14.400Z,101359.53
2023-06-19T15:38:41.497Z,101355.16
2023-06-19T15:41:08.742Z,101356.69
2023-06-19T15:43:35.828Z,101348.56
2023-06-19T15:46:05.209Z,101359.94
2023-06-19T15:48:32.353Z,101359.56
2023-06-19T15:50:59.553Z,101357.53
2023-06-19T15:53:26.723Z,101357.13
2023-06-19T15:55:54.388Z,101355.63
2023-06-19T15:58:21.472Z,101363.91
2023-06-19T16:00:52.970Z,101361.97
2023-06-19T16:03:23.185Z,101356.38
2023-06-19T16:08:26.524Z,101354.72
2023-06-19T16:10:53.775Z,101359.13
2023-06-19T16:13:20.847Z,101353.56
2023-06-19T16:15:47.887Z,101360.69
2023-06-19T16:18:15.649Z,101354.28
2023-06-19T16:20:42.840Z,101369.81
2023-06-19T16:23:09.911Z,101363.03
2023-06-19T16:25:36.996Z,101358.94
2023-06-19T16:28:04.431Z,101366.16
2023-06-19T16:30:31.605Z,101372.81
2023-06-19T16:32:58.826Z,101366.84
2023-06-19T16:35:26.084Z,101366.84
2023-06-19T16:37:59.979Z,101374.31
2023-06-19T16:40:27.664Z,101372.28
2023-06-19T16:42:55.236Z,101375.44
2023-06-19T16:45:25.020Z,101382.50
2023-06-19T16:47:52.189Z,101379.69
2023-06-19T16:50:19.285Z,101375.69
2023-06-19T16:52:46.425Z,101380.00
2023-06-19T16:55:13.488Z,101373.59
2023-06-19T16:57:41.213Z,101377.59
2023-06-19T17:00:11.653Z,101380.03
2023-06-19T17:02:38.931Z,101383.25
2023-06-19T17:05:06.698Z,101373.66
2023-06-19T17:07:35.537Z,101364.88
2023-06-19T17:10:03.835Z,101359.19
2023-06-19T17:12:34.382Z,101365.16
2023-06-19T17:15:01.794Z,101368.31
2023-06-19T17:17:29.168Z,101367.91
2023-06-19T17:19:56.371Z,101373.44
2023-06-19T17:22:23.355Z,101378.19
2023-06-19T17:24:50.673Z,101373.81
2023-06-19T17:27:17.917Z,101378.06
2023-06-19T17:29:45.065Z,101372.44
2023-06-19T17:32:12.082Z,101379.13
2023-06-19T17:34:39.182Z,101374.38
2023-06-19T17:37:06.651Z,101377.94
2023-06-19T17:39:33.648Z,101385.50
2023-06-19T17:42:00.881Z,101388.66
2023-06-19T17:44:30.681Z,101380.34
2023-06-19T17:46:58.187Z,101377.97
2023-06-19T17:49:25.204Z,101383.59
2023-06-19T17:51:52.406Z,101373.22
2023-06-19T17:54:19.637Z,101376.38
2023-06-19T17:56:46.981Z,101373.97
2023-06-19T17:59:14.802Z,101380.91
2023-06-19T18:01:41.880Z,101387.94
2023-06-19T18:04:09.688Z,101389.78
2023-06-19T18:06:36.898Z,101394.34
2023-06-19T18:09:06.660Z,101388.44
2023-06-19T18:11:34.000Z,101394.00
2023-06-19T18:14:01.311Z,101397.97
2023-06-19T18:16:28.638Z,101390.41
2023-06-19T18:18:56.063Z,101391.16
2023-06-19T18:21:23.336Z,101393.50
2023-06-19T18:23:50.786Z,101394.69
2023-06-19T18:26:18.334Z,101395.03
2023-06-19T18:28:45.565Z,101400.19
2023-06-19T18:31:12.975Z,101396.16
2023-06-19T18:33:40.127Z,101408.38
2023-06-19T18:36:07.298Z,101397.63
2023-06-19T18:38:34.429Z,101400.81
2023-06-19T18:41:01.793Z,101397.63
2023-06-19T18:43:28.918Z,101393.63
2023-06-19T18:45:56.653Z,101389.69
2023-06-19T18:48:23.758Z,101386.88
2023-06-19T18:50:50.886Z,101393.56
2023-06-19T18:53:17.987Z,101395.56
2023-06-19T18:55:45.549Z,101393.47
2023-06-19T18:58:13.312Z,101393.03
2023-06-19T19:00:40.811Z,101397.38
2023-06-19T19:03:08.990Z,101398.09
2023-06-19T19:05:37.286Z,101411.09
2023-06-19T19:08:04.582Z,101415.06
2023-06-19T19:10:31.820Z,101415.41
2023-06-19T19:12:59.194Z,101416.25
2023-06-19T19:15:27.499Z,101424.13
2023-06-19T19:17:54.872Z,101420.13
2023-06-19T19:20:22.417Z,101423.28
2023-06-19T19:22:49.808Z,101427.19
2023-06-19T19:25:16.941Z,101415.34
2023-06-19T19:27:44.258Z,101424.88
2023-06-19T19:30:13.050Z,101430.13
2023-06-19T19:32:40.268Z,101435.81
2023-06-19T19:35:08.875Z,101440.22
2023-06-19T19:37:36.001Z,101443.06
2023-06-19T19:40:04.762Z,101443.06
2023-06-19T19:42:31.902Z,101441.91
2023-06-19T19:45:00.250Z,101440.72
2023-06-19T19:47:27.350Z,101452.28
2023-06-19T19:49:55.792Z,101448.03
2023-06-19T19:52:25.424Z,101446.03
2023-06-19T19:54:53.021Z,101452.88
2023-06-19T19:57:20.118Z,101450.66
2023-06-19T19:59:47.358Z,101456.78
2023-06-19T20:02:14.533Z,101451.31
2023-06-19T20:04:41.780Z,101453.00
2023-06-19T20:07:08.976Z,101451.44
2023-06-19T20:09:36.097Z,101449.88
2023-06-19T20:12:20.069Z,101447.53
2023-06-19T20:14:48.524Z,101456.72
2023-06-19T20:17:15.992Z,101450.00
2023-06-19T20:19:43.371Z,101444.44
2023-06-19T20:22:10.580Z,101450.78
2023-06-19T20:24:38.180Z,101447.22
2023-06-19T20:27:08.066Z,101444.44
2023-06-19T20:29:35.436Z,101444.50
2023-06-19T20:32:02.607Z,101436.56
2023-06-19T20:34:30.085Z,101448.88
2023-06-19T20:36:57.915Z,101455.22
2023-06-19T20:39:25.136Z,101452.44
2023-06-19T20:41:52.377Z,101455.66
2023-06-19T20:44:19.751Z,101464.22
2023-06-19T20:46:47.056Z,101464.31
2023-06-19T20:49:14.274Z,101459.81
2023-06-19T20:51:41.487Z,101465.09
2023-06-19T20:54:09.553Z,101460.06
2023-06-19T20:56:36.779Z,101462.59
2023-06-19T20:59:03.910Z,101465.88
2023-06-19T21:01:31.109Z,101467.28
2023-06-19T21:04:02.769Z,101473.94
2023-06-19T21:06:34.334Z,101474.34
2023-06-19T21:09:04.727Z,101478.69
2023-06-19T21:11:32.506Z,101474.88
2023-06-19T21:13:59.602Z,101478.84
2023-06-19T21:16:28.243Z,101473.16
2023-06-19T21:18:55.424Z,101464.75
2023-06-19T21:21:22.638Z,101463.03
2023-06-19T21:23:49.738Z,101469.78
2023-06-19T21:26:17.361Z,101463.41
2023-06-19T21:28:44.611Z,101451.94
2023-06-19T21:31:11.692Z,101455.16
2023-06-19T21:33:38.816Z,101446.84
2023-06-19T21:36:06.375Z,101460.81
2023-06-19T21:38:35.133Z,101458.84
2023-06-19T21:41:05.303Z,101457.69
2023-06-19T21:43:32.574Z,101459.56
2023-06-19T21:45:59.771Z,101462.63
2023-06-19T21:48:27.527Z,101462.56
2023-06-19T21:50:55.317Z,101454.66
2023-06-19T21:53:22.738Z,101457.06
2023-06-19T21:55:49.827Z,101458.59
2023-06-19T21:58:16.979Z,101460.06
2023-06-19T22:00:44.090Z,101463.94
2023-06-19T22:03:11.323Z,101461.25
2023-06-19T22:05:38.485Z,101463.28
2023-06-19T22:08:05.678Z,101466.41
2023-06-19T22:10:33.496Z,101469.91
2023-06-19T22:13:00.733Z,101467.88
2023-06-19T22:15:27.908Z,101463.44
2023-06-19T22:17:55.136Z,101459.00
2023-06-19T22:20:24.404Z,101471.97
2023-06-19T22:22:51.555Z,101467.06
2023-06-19T22:25:18.738Z,101467.78
2023-06-19T22:27:47.434Z,101467.72
2023-06-19T22:30:16.360Z,101460.56
2023-06-19T22:32:43.854Z,101470.50
2023-06-19T22:35:10.996Z,101477.75
2023-06-19T22:37:38.971Z,101470.34
2023-06-19T22:40:08.685Z,101481.91
2023-06-19T22:42:39.140Z,101464.75
2023-06-19T22:45:10.514Z,101474.25
2023-06-19T22:47:41.815Z,101464.66
2023-06-19T22:50:10.318Z,101470.22
2023-06-19T22:52:37.999Z,101470.66
2023-06-19T22:55:05.706Z,101474.00
2023-06-19T22:57:36.302Z,101471.44
2023-06-19T23:00:13.389Z,101468.22
2023-06-19T23:02:41.697Z,101460.19
2023-06-19T23:05:10.354Z,101460.94
2023-06-19T23:07:38.192Z,101461.66
2023-06-19T23:10:05.995Z,101466.31
2023-06-19T23:12:33.695Z,101464.66
2023-06-19T23:15:01.317Z,101463.06
2023-06-19T23:17:28.436Z,101463.41
2023-06-19T23:19:59.454Z,101466.56
2023-06-19T23:22:27.108Z,101478.00
2023-06-19T23:24:54.395Z,101478.00
2023-06-19T23:27:21.741Z,101469.16
2023-06-19T23:29:49.030Z,101469.16
2023-06-19T23:32:16.168Z,101464.75
2023-06-19T23:34:43.458Z,101461.91
2023-06-19T23:37:10.506Z,101455.94
2023-06-19T23:39:37.645Z,101458.97
2023-06-19T23:42:04.905Z,101451.69
2023-06-19T23:44:32.034Z,101459.47
2023-06-19T23:46:59.144Z,101451.88
2023-06-19T23:49:26.473Z,101451.41
2023-06-19T23:51:53.646Z,101446.16
2023-06-19T23:54:22.350Z,101444.47
2023-06-19T23:56:49.391Z,101452.78
2023-06-19T23:59:16.683Z,101442.84
